^^
Station Historical Data
 
Daily Summary for August 16, 2018 Units:  English    Metric   Both
« Previous Day
Next Day »
Daily Weekly Monthly Yearly Custom
  Current: High: Low: Average:
Temperature: 69.6 °F TemperatureF °F 69.6 °F 70.8 °F
Dew Point: 68.4 °F DewpointF °F 68.4 °F 69.1 °F
Humidity: 96% Humidity% 91% 93%
Wind Speed: 0mph WindSpeedMPHmph 0mph 0mph
Wind Gust: 0mph WindSpeedGustMPHmph - -
WindCalm - - North
Pressure: 29.85 in PressureIn in 29.81 in -
Precipitation: 0 in      
Historical Graphs
 
 
Tabular Data for August 16, 2018
Time Temperature Dew Point Pressure Wind Wind Speed Wind Gust Humidity Rainfall Rate (Hourly)
TemperatureF °F DewpointF °F PressureIn in Calm     Humidity% HourlyPrecipIn in
00:04 73.8 °F 71 °F 29.83 in Calm     91% 0 in
00:09 73.6 °F 71.1 °F 29.83 in Calm     92% 0 in
00:14 73.6 °F 71.1 °F 29.83 in Calm     92% 0 in
00:19 73.6 °F 71.1 °F 29.83 in Calm     92% 0 in
00:24 73.5 °F 71 °F 29.83 in Calm     92% 0 in
00:29 73.3 °F 70.8 °F 29.83 in Calm     92% 0 in
00:34 73.1 °F 70.6 °F 29.83 in Calm     92% 0 in
00:39 73.1 °F 70.6 °F 29.83 in Calm     92% 0 in
00:44 73 °F 70.9 °F 29.83 in Calm     93% 0 in
00:49 72.9 °F 70.8 °F 29.83 in Calm     93% 0 in
00:54 72.9 °F 70.8 °F 29.83 in Calm     93% 0 in
00:59 72.8 °F 70.7 °F 29.82 in Calm     93% 0 in
01:04 72.7 °F 70.6 °F 29.82 in Calm     93% 0 in
01:09 72.6 °F 70.5 °F 29.82 in Calm     93% 0 in
01:14 72.6 °F 70.5 °F 29.82 in Calm     93% 0 in
01:19 72.5 °F 70.4 °F 29.82 in Calm     93% 0 in
01:24 72.5 °F 70.7 °F 29.82 in Calm     94% 0 in
01:29 72.5 °F 70.7 °F 29.82 in Calm     94% 0 in
01:34 72.5 °F 70.7 °F 29.81 in Calm     94% 0 in
01:39 72.4 °F 70.3 °F 29.81 in Calm     93% 0 in
01:44 72.3 °F 70.5 °F 29.82 in Calm     94% 0 in
01:49 72.2 °F 70.4 °F 29.82 in Calm     94% 0 in
01:54 72.1 °F 70.3 °F 29.81 in Calm     94% 0 in
01:59 72 °F 70.2 °F 29.81 in Calm     94% 0 in
02:04 72 °F 70.2 °F 29.81 in Calm     94% 0 in
02:09 72 °F 70.2 °F 29.81 in Calm     94% 0 in
02:14 71.9 °F 70.1 °F 29.81 in Calm     94% 0 in
02:19 72 °F 70.5 °F 29.81 in Calm     95% 0 in
02:24 72.1 °F 70.6 °F 29.81 in Calm     95% 0 in
02:29 72.2 °F 70.7 °F 29.81 in Calm     95% 0 in
02:34 72.1 °F 70.3 °F 29.81 in Calm     94% 0 in
02:39 72 °F 70.2 °F 29.81 in Calm     94% 0 in
02:44 72.1 °F 70.6 °F 29.81 in Calm     95% 0 in
02:49 72.1 °F 70.3 °F 29.81 in Calm     94% 0 in
02:54 72.1 °F 70.3 °F 29.81 in Calm     94% 0 in
02:59 72.1 °F 70.6 °F 29.81 in Calm     95% 0 in
03:04 72.1 °F 70.6 °F 29.81 in Calm     95% 0 in
03:09 72.1 °F 70.6 °F 29.81 in Calm     95% 0 in
03:14 72.1 °F 70.6 °F 29.81 in Calm     95% 0 in
03:19 72.1 °F 70.6 °F 29.81 in Calm     95% 0 in
03:24 72.1 °F 70.6 °F 29.81 in Calm     95% 0 in
03:29 72.1 °F 70.6 °F 29.81 in Calm     95% 0 in
03:34 72.2 °F 70.7 °F 29.81 in Calm     95% 0 in
03:39 72.1 °F 70.3 °F 29.81 in Calm     94% 0 in
03:43 72 °F 70.2 °F 29.81 in Calm     94% 0 in
03:49 72 °F 70.2 °F 29.81 in Calm     94% 0 in
03:54 71.9 °F 70.1 °F 29.82 in Calm     94% 0 in
03:59 71.7 °F 69.9 °F 29.82 in Calm     94% 0 in
04:04 71.5 °F 69.7 °F 29.82 in Calm     94% 0 in
04:09 71.5 °F 70 °F 29.82 in Calm     95% 0 in
04:14 71.3 °F 69.5 °F 29.82 in Calm     94% 0 in
04:19 71.3 °F 69.8 °F 29.82 in Calm     95% 0 in
04:24 71.3 °F 69.8 °F 29.82 in Calm     95% 0 in
04:29 71.3 °F 69.8 °F 29.82 in Calm     95% 0 in
04:34 71.2 °F 69.7 °F 29.83 in Calm     95% 0 in
04:39 71.2 °F 69.7 °F 29.83 in Calm     95% 0 in
04:44 71.2 °F 69.7 °F 29.82 in Calm     95% 0 in
04:49 71.1 °F 69.6 °F 29.83 in Calm     95% 0 in
04:54 71 °F 69.5 °F 29.83 in Calm     95% 0 in
04:59 71 °F 69.5 °F 29.83 in Calm     95% 0 in
05:04 71 °F 69.5 °F 29.83 in Calm     95% 0 in
05:09 70.9 °F 69.4 °F 29.83 in Calm     95% 0 in
05:14 70.8 °F 69.3 °F 29.83 in Calm     95% 0 in
05:19 70.7 °F 69.2 °F 29.83 in Calm     95% 0 in
05:24 70.6 °F 69.1 °F 29.83 in Calm     95% 0 in
05:29 70.6 °F 69.1 °F 29.83 in Calm     95% 0 in
05:34 70.5 °F 69.3 °F 29.83 in Calm     96% 0 in
05:39 70.4 °F 68.9 °F 29.83 in Calm     95% 0 in
05:44 70.2 °F 69 °F 29.83 in Calm     96% 0 in
05:49 70.1 °F 68.6 °F 29.83 in Calm     95% 0 in
05:54 70.1 °F 68.9 °F 29.83 in Calm     96% 0 in
05:59 70 °F 68.8 °F 29.83 in Calm     96% 0 in
06:04 69.9 °F 68.7 °F 29.83 in Calm     96% 0 in
06:09 70 °F 68.8 °F 29.83 in Calm     96% 0 in
06:14 70 °F 68.8 °F 29.84 in Calm     96% 0 in
06:19 69.9 °F 68.7 °F 29.84 in Calm     96% 0 in
06:24 69.8 °F 68.6 °F 29.84 in Calm     96% 0 in
06:29 69.8 °F 68.6 °F 29.84 in Calm     96% 0 in
06:34 69.8 °F 68.6 °F 29.84 in Calm     96% 0 in
06:39 69.8 °F 68.6 °F 29.85 in Calm     96% 0 in
06:44 69.7 °F 68.5 °F 29.85 in Calm     96% 0 in
06:49 69.6 °F 68.4 °F 29.85 in Calm     96% 0 in
06:54 69.6 °F 68.4 °F 29.85 in Calm     96% 0 in
06:59 69.6 °F 68.4 °F 29.85 in Calm     96% 0 in
Live Lenexa Weather
Compliments of Weather Underground - 1 mb